createdAt,value
2022-07-29T00:02:26.332Z,100657.88
2022-07-29T00:05:01.761Z,100667.13
2022-07-29T00:07:37.066Z,100662.94
2022-07-29T00:10:11.319Z,100653.28
2022-07-29T00:12:46.984Z,100661.47
2022-07-29T00:15:20.627Z,100661.47
2022-07-29T00:17:55.380Z,100660.88
2022-07-29T00:20:29.039Z,100670.44
2022-07-29T00:23:02.294Z,100663.69
2022-07-29T00:25:35.877Z,100668.91
2022-07-29T00:28:09.083Z,100668.41
2022-07-29T00:30:44.253Z,100665.88
2022-07-29T00:33:19.315Z,100661.72
2022-07-29T00:35:51.881Z,100670.00
2022-07-29T00:38:26.937Z,100671.19
2022-07-29T00:41:00.559Z,100660.59
2022-07-29T00:43:33.845Z,100669.91
2022-07-29T00:46:07.996Z,100674.19
2022-07-29T00:48:43.055Z,100672.53
2022-07-29T00:51:17.378Z,100672.63
2022-07-29T00:53:52.122Z,100679.00
2022-07-29T00:56:25.842Z,100673.72
2022-07-29T00:59:00.091Z,100678.13
2022-07-29T01:01:33.760Z,100689.78
2022-07-29T01:04:09.501Z,100679.38
2022-07-29T01:06:43.947Z,100682.75
2022-07-29T01:09:42.143Z,100683.81
2022-07-29T01:12:14.821Z,100678.72
2022-07-29T01:14:50.163Z,100683.44
2022-07-29T01:17:29.248Z,100676.53
2022-07-29T01:20:09.750Z,100680.38
2022-07-29T01:23:08.396Z,100679.69
2022-07-29T01:26:16.341Z,100675.25
2022-07-29T01:29:08.970Z,100682.22
2022-07-29T01:31:58.775Z,100678.31
2022-07-29T01:34:41.992Z,100675.91
2022-07-29T01:37:22.190Z,100671.78
2022-07-29T01:39:58.794Z,100671.19
2022-07-29T01:42:38.980Z,100670.69
2022-07-29T01:45:19.357Z,100670.03
2022-07-29T01:47:59.621Z,100668.59
2022-07-29T01:50:37.638Z,100667.88
2022-07-29T01:53:15.160Z,100666.34
2022-07-29T01:55:49.162Z,100662.97
2022-07-29T01:58:25.533Z,100668.56
2022-07-29T02:01:02.181Z,100665.06
2022-07-29T02:03:38.825Z,100665.16
2022-07-29T02:06:14.105Z,100665.97
2022-07-29T02:08:49.494Z,100667.66
2022-07-29T02:11:23.276Z,100670.44
2022-07-29T02:14:00.466Z,100674.22
2022-07-29T02:16:38.442Z,100672.56
2022-07-29T02:19:12.823Z,100671.72
2022-07-29T02:21:47.981Z,100680.91
2022-07-29T02:24:22.475Z,100674.00
2022-07-29T02:26:59.069Z,100667.72
2022-07-29T02:29:34.619Z,100674.09
2022-07-29T02:32:12.752Z,100671.66
2022-07-29T02:34:50.906Z,100670.00
2022-07-29T02:37:26.294Z,100672.97
2022-07-29T02:40:01.466Z,100676.81
2022-07-29T02:42:38.818Z,100664.41
2022-07-29T02:45:14.577Z,100666.25
2022-07-29T02:47:50.967Z,100664.81
2022-07-29T02:50:32.261Z,100668.94
2022-07-29T02:53:17.365Z,100666.16
2022-07-29T02:55:57.909Z,100666.25
2022-07-29T02:58:35.002Z,100666.41
2022-07-29T03:01:19.429Z,100663.81
2022-07-29T03:03:57.484Z,100657.75
2022-07-29T03:06:37.883Z,100650.72
2022-07-29T03:09:14.696Z,100655.44
2022-07-29T03:11:50.405Z,100661.00
2022-07-29T03:14:25.344Z,100660.19
2022-07-29T03:16:59.766Z,100662.09
2022-07-29T03:19:35.441Z,100662.28
2022-07-29T03:22:09.703Z,100660.47
2022-07-29T03:24:43.288Z,100663.94
2022-07-29T03:27:16.627Z,100667.81
2022-07-29T03:29:50.692Z,100666.44
2022-07-29T03:32:25.308Z,100668.25
2022-07-29T03:35:00.670Z,100670.16
2022-07-29T03:37:34.736Z,100671.91
2022-07-29T03:40:12.537Z,100670.84
2022-07-29T03:42:48.184Z,100682.41
2022-07-29T03:45:24.479Z,100680.50
2022-07-29T03:48:03.265Z,100683.09
2022-07-29T03:50:38.660Z,100685.09
2022-07-29T03:53:12.449Z,100687.59
2022-07-29T03:55:49.308Z,100667.72
2022-07-29T03:58:23.646Z,100663.91
2022-07-29T04:00:58.212Z,100673.41
2022-07-29T04:03:32.417Z,100672.28
2022-07-29T04:06:09.119Z,100675.56
2022-07-29T04:08:42.733Z,100678.84
2022-07-29T04:11:19.162Z,100669.78
2022-07-29T04:13:52.773Z,100675.34
2022-07-29T04:16:26.079Z,100674.34
2022-07-29T04:19:00.290Z,100680.66
2022-07-29T04:21:39.919Z,100674.91
2022-07-29T04:24:14.368Z,100678.00
2022-07-29T04:26:48.356Z,100681.00
2022-07-29T04:29:22.203Z,100677.72
2022-07-29T04:31:55.944Z,100687.00
2022-07-29T04:34:29.270Z,100690.09
2022-07-29T04:37:04.302Z,100691.03
2022-07-29T04:39:41.044Z,100687.97
2022-07-29T04:42:14.827Z,100690.84
2022-07-29T04:44:50.918Z,100695.66
2022-07-29T04:47:25.635Z,100692.13
2022-07-29T04:49:58.925Z,100691.50
2022-07-29T04:52:34.027Z,100696.78
2022-07-29T04:55:08.554Z,100690.69
2022-07-29T04:57:42.296Z,100703.31
2022-07-29T05:00:16.879Z,100684.47
2022-07-29T05:02:50.630Z,100689.78
2022-07-29T05:05:34.323Z,100683.56
2022-07-29T05:08:09.447Z,100689.19
2022-07-29T05:10:43.128Z,100692.09
2022-07-29T05:13:19.484Z,100692.44
2022-07-29T05:15:53.287Z,100688.78
2022-07-29T05:18:26.947Z,100693.28
2022-07-29T05:21:00.140Z,100692.44
2022-07-29T05:23:35.336Z,100688.75
2022-07-29T05:26:08.942Z,100679.00
2022-07-29T05:28:42.548Z,100681.78
2022-07-29T05:31:18.705Z,100680.66
2022-07-29T05:33:52.562Z,100675.94
2022-07-29T05:36:30.432Z,100677.75
2022-07-29T05:39:14.146Z,100673.69
2022-07-29T05:41:51.879Z,100680.75
2022-07-29T05:44:28.564Z,100683.25
2022-07-29T05:47:02.279Z,100681.34
2022-07-29T05:49:36.142Z,100685.81
2022-07-29T05:52:12.400Z,100679.41
2022-07-29T05:54:47.548Z,100679.31
2022-07-29T05:57:22.255Z,100678.25
2022-07-29T05:59:57.658Z,100673.56
2022-07-29T06:02:31.285Z,100676.13
2022-07-29T06:05:06.101Z,100672.19
2022-07-29T06:07:50.005Z,100678.34
2022-07-29T06:10:27.091Z,100673.50
2022-07-29T06:13:00.926Z,100673.00
2022-07-29T06:15:34.707Z,100674.44
2022-07-29T06:18:11.115Z,100676.84
2022-07-29T06:20:44.888Z,100669.09
2022-07-29T06:23:18.560Z,100669.63
2022-07-29T06:25:56.072Z,100679.94
2022-07-29T06:28:29.753Z,100683.03
2022-07-29T06:31:03.569Z,100682.84
2022-07-29T06:33:41.425Z,100681.72
2022-07-29T06:36:15.561Z,100677.22
2022-07-29T06:38:51.290Z,100685.13
2022-07-29T06:41:28.691Z,100690.22
2022-07-29T06:44:02.496Z,100685.94
2022-07-29T06:46:36.396Z,100680.84
2022-07-29T06:49:10.565Z,100684.00
2022-07-29T06:51:44.768Z,100674.56
2022-07-29T06:54:18.479Z,100676.75
2022-07-29T06:56:53.821Z,100672.56
2022-07-29T06:59:35.076Z,100678.47
2022-07-29T07:02:09.401Z,100678.69
2022-07-29T07:04:43.145Z,100679.09
2022-07-29T07:07:16.813Z,100676.78
2022-07-29T07:09:51.766Z,100677.84
2022-07-29T07:12:26.743Z,100671.50
2022-07-29T07:15:00.516Z,100676.06
2022-07-29T07:17:34.082Z,100668.53
2022-07-29T07:20:08.816Z,100662.69
2022-07-29T07:22:42.697Z,100668.53
2022-07-29T07:25:18.561Z,100669.41
2022-07-29T07:27:53.665Z,100673.00
2022-07-29T07:30:28.528Z,100666.84
2022-07-29T07:33:03.092Z,100666.13
2022-07-29T07:35:36.906Z,100665.09
2022-07-29T07:38:10.572Z,100673.22
2022-07-29T07:40:44.315Z,100672.16
2022-07-29T07:43:19.419Z,100670.41
2022-07-29T07:45:54.113Z,100678.34
2022-07-29T07:48:28.104Z,100682.88
2022-07-29T07:51:01.747Z,100674.03
2022-07-29T07:53:35.537Z,100675.13
2022-07-29T07:56:11.317Z,100664.34
2022-07-29T07:58:47.078Z,100685.44
2022-07-29T08:01:24.213Z,100672.25
2022-07-29T08:03:58.016Z,100674.31
2022-07-29T08:06:31.670Z,100669.72
2022-07-29T08:09:27.804Z,100669.34
2022-07-29T08:12:00.124Z,100670.69
2022-07-29T08:14:35.589Z,100674.28
2022-07-29T08:17:09.354Z,100676.63
2022-07-29T08:19:43.012Z,100676.84
2022-07-29T08:22:16.688Z,100667.50
2022-07-29T08:24:55.697Z,100665.84
2022-07-29T08:27:47.295Z,100671.41
2022-07-29T08:30:22.584Z,100663.41
2022-07-29T08:33:02.660Z,100662.41
2022-07-29T08:35:36.588Z,100664.13
2022-07-29T08:38:11.078Z,100670.13
2022-07-29T08:40:44.997Z,100675.41
2022-07-29T08:43:18.660Z,100676.09
2022-07-29T08:45:54.406Z,100666.34
2022-07-29T08:48:28.134Z,100666.44
2022-07-29T08:51:03.077Z,100662.59
2022-07-29T08:53:39.204Z,100664.09
2022-07-29T08:56:15.555Z,100658.53
2022-07-29T08:58:52.302Z,100668.94
2022-07-29T09:01:35.769Z,100664.25
2022-07-29T09:04:17.184Z,100666.78
2022-07-29T09:06:54.476Z,100668.50
2022-07-29T09:09:28.508Z,100672.16
2022-07-29T09:12:02.440Z,100670.53
2022-07-29T09:14:36.237Z,100664.78
2022-07-29T09:17:11.407Z,100664.44
2022-07-29T09:19:45.333Z,100659.63
2022-07-29T09:22:37.665Z,100653.06
2022-07-29T09:25:15.836Z,100653.59
2022-07-29T09:27:53.070Z,100650.09
2022-07-29T09:30:31.692Z,100662.78
2022-07-29T09:33:07.426Z,100649.44
2022-07-29T09:35:41.989Z,100661.56
2022-07-29T09:38:30.476Z,100649.19
2022-07-29T09:41:07.385Z,100650.44
2022-07-29T09:43:42.410Z,100642.81
2022-07-29T09:46:16.856Z,100649.56
2022-07-29T09:49:09.143Z,100636.78
2022-07-29T09:51:42.677Z,100651.09
2022-07-29T09:54:26.789Z,100649.13
2022-07-29T09:57:00.714Z,100640.44
2022-07-29T09:59:34.631Z,100650.50
2022-07-29T10:02:18.902Z,100653.38
2022-07-29T10:04:57.666Z,100636.69
2022-07-29T10:07:51.776Z,100640.22
2022-07-29T10:10:28.992Z,100635.06
2022-07-29T10:13:08.796Z,100638.34
2022-07-29T10:15:46.446Z,100625.91
2022-07-29T10:18:21.124Z,100636.59
2022-07-29T10:20:56.586Z,100630.34
2022-07-29T10:23:47.113Z,100626.84
2022-07-29T10:26:22.234Z,100609.88
2022-07-29T10:28:55.937Z,100611.59
2022-07-29T10:31:39.172Z,100613.53
2022-07-29T10:34:23.059Z,100608.94
2022-07-29T10:37:06.290Z,100615.16
2022-07-29T10:39:52.749Z,100606.72
2022-07-29T10:42:33.373Z,100598.84
2022-07-29T10:45:09.055Z,100606.31
2022-07-29T10:47:43.793Z,100595.81
2022-07-29T10:50:17.611Z,100607.75
2022-07-29T10:52:58.948Z,100597.13
2022-07-29T10:55:43.760Z,100591.47
2022-07-29T10:58:20.084Z,100594.25
2022-07-29T11:00:57.646Z,100593.97
2022-07-29T11:03:53.660Z,100584.88
2022-07-29T11:07:11.920Z,100594.22
2022-07-29T11:10:07.163Z,100584.69
2022-07-29T11:12:53.889Z,100597.69
2022-07-29T11:18:21.759Z,100589.00
2022-07-29T11:20:57.622Z,100584.56
2022-07-29T11:23:36.801Z,100585.69
2022-07-29T11:26:30.147Z,100575.13
2022-07-29T11:29:16.751Z,100568.50
2022-07-29T11:31:55.860Z,100566.84
2022-07-29T11:34:32.093Z,100574.53
2022-07-29T11:37:27.657Z,100566.00
2022-07-29T11:40:18.418Z,100572.81
2022-07-29T11:42:55.069Z,100566.22
2022-07-29T11:45:47.134Z,100570.22
2022-07-29T11:51:15.032Z,100569.84
2022-07-29T11:53:52.477Z,100575.19
2022-07-29T11:56:32.809Z,100564.78
2022-07-29T11:59:15.177Z,100569.00
2022-07-29T12:02:06.864Z,100566.38
2022-07-29T12:04:57.290Z,100560.22
2022-07-29T12:07:02.107Z,100564.47
2022-07-29T12:07:32.595Z,100571.06
2022-07-29T12:10:20.201Z,100554.66
2022-07-29T12:13:04.290Z,100550.81
2022-07-29T12:15:47.014Z,100549.78
2022-07-29T12:18:30.086Z,100557.84
2022-07-29T12:21:05.199Z,100554.00
2022-07-29T12:23:39.171Z,100551.78
2022-07-29T12:26:25.285Z,100554.91
2022-07-29T12:28:59.385Z,100554.81
2022-07-29T12:31:43.829Z,100543.06
2022-07-29T12:34:19.075Z,100539.44
2022-07-29T12:36:52.915Z,100551.25
2022-07-29T12:39:29.164Z,100546.94
2022-07-29T12:42:13.986Z,100543.72
2022-07-29T12:44:51.276Z,100537.03
2022-07-29T12:47:26.465Z,100535.75
2022-07-29T12:50:13.697Z,100532.31
2022-07-29T12:52:48.578Z,100529.00
2022-07-29T12:55:44.028Z,100527.22
2022-07-29T12:58:29.631Z,100534.56
2022-07-29T13:01:17.475Z,100525.75
2022-07-29T13:03:57.737Z,100520.56
2022-07-29T13:06:37.261Z,100520.28
2022-07-29T13:09:13.334Z,100519.63
2022-07-29T13:11:48.971Z,100521.41
2022-07-29T13:14:33.534Z,100525.56
2022-07-29T13:17:14.573Z,100521.53
2022-07-29T13:19:54.815Z,100514.13
2022-07-29T13:22:30.409Z,100518.25
2022-07-29T13:25:08.044Z,100512.41
2022-07-29T13:27:42.131Z,100512.50
2022-07-29T13:30:15.899Z,100497.97
2022-07-29T13:32:49.736Z,100507.19
2022-07-29T13:35:30.808Z,100493.75
2022-07-29T13:38:04.432Z,100497.41
2022-07-29T13:40:40.659Z,100498.72
2022-07-29T13:43:14.466Z,100496.06
2022-07-29T13:45:48.099Z,100495.19
2022-07-29T13:48:21.894Z,100496.25
2022-07-29T13:50:56.905Z,100494.63
2022-07-29T13:53:30.585Z,100499.75
2022-07-29T13:56:04.191Z,100496.34
2022-07-29T13:58:38.056Z,100491.78
2022-07-29T14:01:11.655Z,100493.59
2022-07-29T14:03:45.903Z,100487.63
2022-07-29T14:06:22.844Z,100484.88
2022-07-29T14:08:56.998Z,100485.94
2022-07-29T14:11:30.792Z,100472.84
2022-07-29T14:14:04.686Z,100475.22
2022-07-29T14:16:43.049Z,100481.56
2022-07-29T14:19:17.599Z,100476.81
2022-07-29T14:21:55.243Z,100483.44
2022-07-29T14:24:31.287Z,100478.53
2022-07-29T14:27:06.455Z,100480.00
2022-07-29T14:29:40.567Z,100476.22
2022-07-29T14:32:16.105Z,100469.28
2022-07-29T14:34:50.950Z,100465.78
2022-07-29T14:37:26.023Z,100464.81
2022-07-29T14:40:04.098Z,100461.28
2022-07-29T14:42:38.729Z,100457.91
2022-07-29T14:45:14.074Z,100455.59
2022-07-29T14:47:47.652Z,100451.38
2022-07-29T14:50:23.330Z,100447.50
2022-07-29T14:53:06.791Z,100447.88
2022-07-29T14:55:40.660Z,100440.34
2022-07-29T14:58:16.670Z,100444.19
2022-07-29T15:00:50.864Z,100443.78
2022-07-29T15:03:24.576Z,100447.75
2022-07-29T15:05:58.670Z,100437.19
2022-07-29T15:08:33.879Z,100438.44
2022-07-29T15:11:07.612Z,100432.16
2022-07-29T15:13:41.256Z,100428.22
2022-07-29T15:16:15.156Z,100427.91
2022-07-29T15:18:49.243Z,100429.28
2022-07-29T15:21:23.083Z,100437.34
2022-07-29T15:23:58.321Z,100433.09
2022-07-29T15:26:31.947Z,100423.81
2022-07-29T15:29:05.698Z,100413.38
2022-07-29T15:31:39.581Z,100423.66
2022-07-29T15:34:14.396Z,100422.25
2022-07-29T15:36:52.784Z,100420.94
2022-07-29T15:39:28.457Z,100418.72
2022-07-29T15:42:02.199Z,100421.81
2022-07-29T15:44:36.378Z,100423.00
2022-07-29T15:47:10.102Z,100414.28
2022-07-29T15:49:47.788Z,100418.09
2022-07-29T15:52:26.156Z,100408.31
2022-07-29T15:55:01.560Z,100419.28
2022-07-29T15:57:35.197Z,100418.25
2022-07-29T16:00:10.284Z,100417.22
2022-07-29T16:02:44.096Z,100415.16
2022-07-29T16:05:18.048Z,100402.47
2022-07-29T16:07:51.701Z,100402.00
2022-07-29T16:10:26.928Z,100403.19
2022-07-29T16:13:00.498Z,100410.38
2022-07-29T16:15:34.285Z,100405.56
2022-07-29T16:18:09.054Z,100404.56
2022-07-29T16:20:43.556Z,100404.91
2022-07-29T16:23:17.180Z,100402.50
2022-07-29T16:26:01.131Z,100401.16
2022-07-29T16:28:35.457Z,100405.97
2022-07-29T16:31:09.407Z,100410.06
2022-07-29T16:33:54.817Z,100415.88
2022-07-29T16:36:29.568Z,100412.47
2022-07-29T16:39:05.118Z,100405.63
2022-07-29T16:41:40.443Z,100413.53
2022-07-29T16:44:14.488Z,100412.34
2022-07-29T16:46:49.380Z,100414.03
2022-07-29T16:49:23.706Z,100422.25
2022-07-29T16:51:57.432Z,100418.69
2022-07-29T16:54:32.587Z,100424.13
2022-07-29T16:57:07.751Z,100414.25
2022-07-29T16:59:43.542Z,100422.97
2022-07-29T17:02:17.505Z,100420.06
2022-07-29T17:04:51.625Z,100416.28
2022-07-29T17:07:25.511Z,100422.25
2022-07-29T17:10:03.399Z,100414.03
2022-07-29T17:12:40.555Z,100410.94
2022-07-29T17:15:14.610Z,100410.56
2022-07-29T17:17:55.204Z,100403.72
2022-07-29T17:20:30.299Z,100405.06
2022-07-29T17:23:04.193Z,100406.63
2022-07-29T17:25:38.071Z,100409.69
2022-07-29T17:28:13.199Z,100406.59
2022-07-29T17:30:46.939Z,100408.97
2022-07-29T17:33:20.945Z,100412.22
2022-07-29T17:36:12.273Z,100417.31
2022-07-29T17:38:46.087Z,100418.13
2022-07-29T17:41:19.692Z,100416.41
2022-07-29T17:43:55.528Z,100419.09
2022-07-29T17:46:31.884Z,100418.00
2022-07-29T17:49:05.939Z,100413.53
2022-07-29T17:51:39.877Z,100418.09
2022-07-29T17:54:13.684Z,100419.59
2022-07-29T17:56:47.932Z,100418.38
2022-07-29T17:59:23.160Z,100417.13
2022-07-29T18:01:56.916Z,100415.94
2022-07-29T18:04:31.703Z,100414.00
2022-07-29T18:07:05.438Z,100415.63
2022-07-29T18:09:39.254Z,100423.59
2022-07-29T18:12:13.016Z,100415.19
2022-07-29T18:14:48.369Z,100414.97
2022-07-29T18:17:22.164Z,100411.28
2022-07-29T18:20:15.518Z,100417.84
2022-07-29T18:22:52.105Z,100412.25
2022-07-29T18:25:26.262Z,100415.06
2022-07-29T18:28:01.418Z,100421.13
2022-07-29T18:30:38.104Z,100412.88
2022-07-29T18:33:22.920Z,100416.94
2022-07-29T18:36:07.642Z,100417.41
2022-07-29T18:38:45.369Z,100420.44
2022-07-29T18:41:19.125Z,100423.59
2022-07-29T18:43:55.137Z,100410.59
2022-07-29T18:46:30.398Z,100415.66
2022-07-29T18:49:04.634Z,100411.66
2022-07-29T18:51:38.381Z,100404.97
2022-07-29T18:54:14.655Z,100402.84
2022-07-29T18:56:51.582Z,100401.72
2022-07-29T18:59:25.211Z,100412.25
2022-07-29T19:02:00.513Z,100413.88
2022-07-29T19:04:34.203Z,100423.34
2022-07-29T19:07:07.774Z,100424.78
2022-07-29T19:09:49.099Z,100431.31
2022-07-29T19:12:23.520Z,100441.13
2022-07-29T19:14:57.204Z,100434.09
2022-07-29T19:17:32.848Z,100432.69
2022-07-29T19:20:07.570Z,100433.97
2022-07-29T19:22:44.207Z,100443.16
2022-07-29T19:25:19.669Z,100439.00
2022-07-29T19:27:53.284Z,100436.88
2022-07-29T19:30:26.976Z,100456.22
2022-07-29T19:33:02.174Z,100443.19
2022-07-29T19:35:36.831Z,100443.75
2022-07-29T19:38:10.941Z,100437.06
2022-07-29T19:40:47.078Z,100437.63
2022-07-29T19:43:50.863Z,100441.63
2022-07-29T19:46:14.444Z,100446.75
2022-07-29T19:48:57.829Z,100448.78
2022-07-29T19:51:31.620Z,100443.47
2022-07-29T19:54:08.696Z,100448.22
2022-07-29T19:56:45.255Z,100442.03
2022-07-29T19:59:19.319Z,100442.78
2022-07-29T20:01:57.673Z,100436.88
2022-07-29T20:04:34.481Z,100438.19
2022-07-29T20:07:08.877Z,100433.03
2022-07-29T20:09:43.427Z,100435.03
2022-07-29T20:12:17.512Z,100435.31
2022-07-29T20:14:51.826Z,100428.72
2022-07-29T20:17:28.834Z,100429.88
2022-07-29T20:20:04.533Z,100433.59
2022-07-29T20:22:38.831Z,100428.47
2022-07-29T20:25:16.131Z,100426.75
2022-07-29T20:27:52.469Z,100422.13
2022-07-29T20:30:26.401Z,100422.28
2022-07-29T20:33:03.809Z,100425.13
2022-07-29T20:35:39.485Z,100419.81
2022-07-29T20:38:18.044Z,100420.38
2022-07-29T20:40:53.482Z,100418.34
2022-07-29T20:43:29.153Z,100416.50
2022-07-29T20:46:03.298Z,100415.31
2022-07-29T20:48:37.049Z,100422.34
2022-07-29T20:51:12.375Z,100412.00
2022-07-29T20:53:46.053Z,100417.31
2022-07-29T20:56:21.592Z,100412.91
2022-07-29T20:58:55.443Z,100404.00
2022-07-29T21:01:29.115Z,100420.47
2022-07-29T21:04:03.678Z,100414.03
2022-07-29T21:06:41.276Z,100417.91
2022-07-29T21:09:15.171Z,100421.50
2022-07-29T21:11:55.987Z,100433.53
2022-07-29T21:14:48.037Z,100427.09
2022-07-29T21:17:22.633Z,100426.09
2022-07-29T21:19:56.599Z,100436.00
2022-07-29T21:22:33.317Z,100432.97
2022-07-29T21:25:07.670Z,100428.53
2022-07-29T21:27:58.811Z,100422.50
2022-07-29T21:30:32.389Z,100422.75
2022-07-29T21:33:06.561Z,100417.88
2022-07-29T21:36:14.984Z,100426.22
2022-07-29T21:38:35.675Z,100420.19
2022-07-29T21:41:10.973Z,100422.91
2022-07-29T21:43:44.691Z,100416.75
2022-07-29T21:46:18.558Z,100417.06
2022-07-29T21:48:52.342Z,100412.03
2022-07-29T21:51:26.190Z,100414.50
2022-07-29T21:54:01.226Z,100415.09
2022-07-29T21:56:35.324Z,100410.53
2022-07-29T21:59:10.544Z,100415.41
2022-07-29T22:01:46.820Z,100407.53
2022-07-29T22:04:20.717Z,100406.69
2022-07-29T22:06:54.530Z,100409.84
2022-07-29T22:09:29.820Z,100402.97
2022-07-29T22:12:06.447Z,100405.69
2022-07-29T22:14:40.044Z,100404.25
2022-07-29T22:17:15.848Z,100396.81
2022-07-29T22:19:54.593Z,100382.22
2022-07-29T22:22:28.288Z,100386.53
2022-07-29T22:25:03.477Z,100381.38
2022-07-29T22:27:37.450Z,100378.66
2022-07-29T22:30:12.191Z,100377.50
2022-07-29T22:32:45.829Z,100382.06
2022-07-29T22:35:19.505Z,100386.34
2022-07-29T22:37:53.482Z,100384.09
2022-07-29T22:40:30.762Z,100382.22
2022-07-29T22:43:06.394Z,100383.22
2022-07-29T22:45:40.154Z,100382.94
2022-07-29T22:48:14.017Z,100388.94
2022-07-29T22:50:47.934Z,100397.53
2022-07-29T22:53:24.540Z,100389.63
2022-07-29T22:56:01.491Z,100385.91
2022-07-29T22:58:35.129Z,100389.78
2022-07-29T23:01:09.196Z,100392.94
2022-07-29T23:03:50.892Z,100389.78
2022-07-29T23:06:25.260Z,100391.81
2022-07-29T23:08:59.039Z,100393.41
2022-07-29T23:11:34.274Z,100387.50
2022-07-29T23:14:09.688Z,100392.09
2022-07-29T23:16:46.651Z,100383.38
2022-07-29T23:19:23.341Z,100382.94
2022-07-29T23:21:56.884Z,100384.66
2022-07-29T23:24:30.482Z,100382.06
2022-07-29T23:27:11.387Z,100375.31
2022-07-29T23:29:45.004Z,100376.69
2022-07-29T23:32:18.607Z,100372.94
2022-07-29T23:34:52.262Z,100377.44
2022-07-29T23:37:26.846Z,100376.94
2022-07-29T23:40:01.283Z,100380.03
2022-07-29T23:42:38.797Z,100379.94
2022-07-29T23:45:13.678Z,100372.47
2022-07-29T23:47:49.404Z,100381.09
2022-07-29T23:50:23.016Z,100380.22
2022-07-29T23:52:58.930Z,100376.91
2022-07-29T23:55:36.686Z,100377.94
2022-07-29T23:58:14.080Z,100378.88
